Time;durP1;ratioP1;P1;durP2;ratioP2;P2;SDS_P1;SDS_P2;PMS_P1;PMS_P2;Temp;Humidity;BMP_temperature;BMP_pressure;BME280_temperature;BME280_humidity;BME280_pressure;Samples;Min_cycle;Max_cycle;Signal;HPM_P1;HPM_P2
2022/02/05 00:03:24;;;;;;;6.53;2.17;;;5.10;90.50;;;;;;6142916;22;92758;-72
2022/02/05 00:05:55;;;;;;;9.25;2.15;;;5.00;91.00;;;;;;6155828;22;93222;-72
2022/02/05 00:43:46;;;;;;;6.30;1.85;;;5.20;90.80;;;;;;6128326;22;92645;-72
2022/02/05 00:46:14;;;;;;;10.15;2.05;;;5.20;90.90;;;;;;6129015;22;92452;-72
2022/02/05 00:48:41;;;;;;;9.77;2.15;;;5.10;91.10;;;;;;6129350;22;93107;-72
2022/02/05 00:51:16;;;;;;;9.43;2.60;;;5.20;91.30;;;;;;6128642;22;92923;-72
2022/02/05 00:53:46;;;;;;;10.63;2.78;;;5.20;91.60;;;;;;6129076;22;92386;-72
2022/02/05 00:56:20;;;;;;;12.40;2.40;;;5.30;91.70;;;;;;6155856;22;91628;-72
2022/02/05 00:58:47;;;;;;;;;;;5.30;91.60;;;;;;6155974;22;93316;-72
2022/02/05 01:01:14;;;;;;;11.02;1.85;;;5.40;91.70;;;;;;6155847;22;111278;-72
2022/02/05 01:03:41;;;;;;;10.30;2.25;;;5.40;91.70;;;;;;6127766;22;95436;-72
2022/02/05 01:06:09;;;;;;;6.05;1.52;;;5.50;91.60;;;;;;6103715;22;92397;-72
2022/02/05 01:08:37;;;;;;;6.97;1.70;;;5.50;91.30;;;;;;6104653;22;93298;-71
2022/02/05 01:11:04;;;;;;;5.35;1.52;;;5.60;91.40;;;;;;6129519;22;92877;-72
2022/02/05 01:13:33;;;;;;;7.88;1.90;;;5.60;91.30;;;;;;6128639;22;92347;-72
2022/02/05 01:16:12;;;;;;;11.43;2.50;;;5.70;91.00;;;;;;6155578;22;92391;-72
2022/02/05 01:18:41;;;;;;;9.55;2.33;;;5.70;90.90;;;;;;6155349;22;93148;-72
2022/02/05 01:23:50;;;;;;;9.32;2.30;;;5.70;90.80;;;;;;6155654;22;92281;-72
2022/02/05 01:26:27;;;;;;;9.90;2.15;;;5.80;90.70;;;;;;6106986;22;92441;-72
2022/02/05 01:29:06;;;;;;;9.73;2.40;;;5.70;90.60;;;;;;6129900;22;95623;-72
2022/02/05 01:31:42;;;;;;;10.40;2.85;;;5.70;90.70;;;;;;6128550;22;97999;-72
2022/02/05 02:11:46;;;;;;;23.35;3.38;;;5.30;90.70;;;;;;6154761;22;93270;-72
2022/02/05 02:21:49;;;;;;;8.05;1.95;;;5.30;90.90;;;;;;6127387;22;98238;-72
2022/02/05 02:24:29;;;;;;;16.17;2.80;;;5.30;90.70;;;;;;6156120;22;95417;-72
2022/02/05 02:30:28;;;;;;;14.20;2.38;;;5.40;90.60;;;;;;6101615;22;92475;-72
2022/02/05 02:32:50;;;;;;;11.32;2.85;;;5.40;90.40;;;;;;6150443;22;94212;-72
2022/02/05 02:35:22;;;;;;;16.63;2.70;;;5.40;90.30;;;;;;6156178;22;92879;-72
2022/02/05 02:40:26;;;;;;;13.60;3.13;;;5.50;90.40;;;;;;6130844;22;91668;-72
2022/02/05 02:43:01;;;;;;;14.93;3.13;;;5.60;90.20;;;;;;6156273;22;93288;-72
2022/02/05 02:45:28;;;;;;;14.18;3.55;;;5.70;90.20;;;;;;6131007;22;93932;-72
2022/02/05 02:47:55;;;;;;;11.82;2.30;;;5.70;90.10;;;;;;6155058;22;95112;-72
2022/02/05 02:58:27;;;;;;;10.90;2.13;;;5.90;89.10;;;;;;6156220;22;92278;-72
2022/02/05 03:00:57;;;;;;;19.52;2.92;;;5.90;88.60;;;;;;6156193;22;92814;-72
2022/02/05 03:03:26;;;;;;;11.57;2.30;;;5.80;88.60;;;;;;6130259;22;93281;-72
2022/02/05 03:05:53;;;;;;;10.93;2.90;;;5.80;88.60;;;;;;6130014;22;93014;-72
2022/02/05 03:08:20;;;;;;;14.15;2.33;;;5.80;88.60;;;;;;6155528;22;102339;-72
2022/02/05 03:10:47;;;;;;;11.43;2.42;;;5.80;88.80;;;;;;6155950;22;92450;-72
2022/02/05 03:13:14;;;;;;;11.63;2.33;;;5.80;89.40;;;;;;6127503;22;98086;-72
2022/02/05 03:15:45;;;;;;;14.00;2.63;;;5.80;89.10;;;;;;6128989;22;97974;-72
2022/02/05 03:18:28;;;;;;;11.60;2.70;;;5.70;89.30;;;;;;6156168;22;92298;-72
2022/02/05 03:20:55;;;;;;;12.23;2.70;;;5.70;89.20;;;;;;6129823;22;92879;-72
2022/02/05 03:23:22;;;;;;;14.95;2.92;;;5.60;89.20;;;;;;6155833;22;93071;-72
2022/02/05 03:25:49;;;;;;;15.93;2.65;;;5.50;89.60;;;;;;6129235;22;92902;-72
2022/02/05 03:28:16;;;;;;;11.77;2.65;;;5.50;89.90;;;;;;6156146;22;92284;-72
2022/02/05 03:30:43;;;;;;;18.60;3.10;;;5.40;89.90;;;;;;6130133;22;92207;-72
2022/02/05 03:33:10;;;;;;;13.50;2.75;;;5.40;89.90;;;;;;6104284;22;95723;-72
2022/02/05 03:35:38;;;;;;;17.52;2.80;;;5.30;90.10;;;;;;6154770;22;109852;-72
2022/02/05 03:38:04;;;;;;;16.20;2.50;;;5.30;90.10;;;;;;6154633;22;94673;-72
2022/02/05 03:40:31;;;;;;;16.80;3.15;;;5.20;90.20;;;;;;6128856;22;92387;-72
2022/02/05 03:42:58;;;;;;;13.32;3.42;;;5.20;90.30;;;;;;6129024;22;94390;-72
2022/02/05 03:45:25;;;;;;;12.30;2.45;;;5.20;90.30;;;;;;6155366;22;92958;-72
2022/02/05 03:47:52;;;;;;;17.25;2.65;;;5.20;90.20;;;;;;6128924;22;92391;-72
2022/02/05 03:50:20;;;;;;;14.32;2.47;;;5.10;90.20;;;;;;6129764;22;92466;-72
2022/02/05 03:52:47;;;;;;;12.35;2.88;;;5.10;90.30;;;;;;6129093;22;93262;-72
2022/02/05 03:55:14;;;;;;;13.18;2.72;;;5.00;90.40;;;;;;6129989;22;92813;-72
2022/02/05 03:57:41;;;;;;;19.13;3.17;;;5.00;90.60;;;;;;6128876;22;92462;-71
2022/02/05 04:00:09;;;;;;;18.20;3.47;;;5.00;90.60;;;;;;6155437;22;98014;-72
2022/02/05 04:02:37;;;;;;;14.13;2.20;;;5.00;90.50;;;;;;6127452;22;100599;-71
2022/02/05 04:05:06;;;;;;;14.00;3.10;;;5.00;90.50;;;;;;6128390;22;97837;-72
2022/02/05 04:07:37;;;;;;;9.07;2.50;;;5.00;90.40;;;;;;6155596;22;92297;-72
2022/02/05 04:10:07;;;;;;;24.05;4.15;;;5.00;90.50;;;;;;6129211;22;92399;-72
2022/02/05 04:18:04;;;;;;;12.18;2.67;;;5.10;90.30;;;;;;6155948;22;92284;-72
2022/02/05 04:20:34;;;;;;;15.38;2.90;;;5.10;90.20;;;;;;6156222;22;91611;-72
2022/02/05 04:23:01;;;;;;;11.95;2.67;;;5.10;90.10;;;;;;6128607;22;95987;-72
2022/02/05 04:25:28;;;;;;;13.40;2.55;;;5.10;90.00;;;;;;6129190;22;92903;-72
2022/02/05 04:27:55;;;;;;;12.10;2.65;;;5.00;90.00;;;;;;6127358;22;94766;-72
2022/02/05 04:30:22;;;;;;;11.20;2.33;;;5.00;90.00;;;;;;6155880;22;92377;-72
2022/02/05 04:32:49;;;;;;;17.75;2.60;;;4.90;90.20;;;;;;6103366;22;106545;-72
2022/02/05 04:35:20;;;;;;;12.77;2.55;;;4.90;90.30;;;;;;6155666;22;92921;-72
2022/02/05 04:37:50;;;;;;;10.88;2.33;;;4.90;90.30;;;;;;6155549;22;92341;-72
2022/02/05 04:40:29;;;;;;;17.20;3.97;;;4.80;90.30;;;;;;6155363;22;92304;-72
2022/02/05 04:48:28;;;;;;;16.85;2.88;;;4.70;90.40;;;;;;6128776;22;92466;-72
2022/02/05 05:01:55;;;;;;;15.40;2.72;;;4.70;90.70;;;;;;6129000;22;92688;-72
2022/02/05 05:20:15;;;;;;;14.52;2.92;;;5.10;90.50;;;;;;6127442;22;94793;-72
2022/02/05 05:22:42;;;;;;;11.77;2.53;;;5.00;90.40;;;;;;6128350;22;92309;-72
2022/02/05 05:25:13;;;;;;;13.88;2.55;;;5.00;90.20;;;;;;6128441;22;94331;-72
2022/02/05 05:27:40;;;;;;;10.88;3.00;;;5.00;90.20;;;;;;6155371;22;92983;-72
2022/02/05 05:30:08;;;;;;;9.80;2.55;;;4.90;90.30;;;;;;6103895;22;92361;-72
2022/02/05 05:32:35;;;;;;;16.92;3.25;;;4.90;90.40;;;;;;6129288;22;92453;-72
2022/02/05 05:35:03;;;;;;;9.05;2.33;;;4.90;90.30;;;;;;6128033;22;107646;-72
2022/02/05 05:37:30;;;;;;;13.32;2.75;;;4.80;90.40;;;;;;6129616;22;92964;-72
2022/02/05 05:39:57;;;;;;;15.65;2.85;;;4.80;90.30;;;;;;6129074;22;92346;-73
2022/02/05 05:42:28;;;;;;;14.25;3.30;;;4.70;90.30;;;;;;6155462;22;93066;-72
2022/02/05 05:53:06;;;;;;;14.45;3.38;;;4.50;90.50;;;;;;6128027;22;92535;-72
2022/02/05 05:55:33;;;;;;;11.82;3.47;;;4.50;90.70;;;;;;6155113;22;93063;-72
2022/02/05 05:58:01;;;;;;;11.95;2.25;;;4.50;90.70;;;;;;6154889;22;93045;-72
2022/02/05 06:00:28;;;;;;;16.65;3.13;;;4.50;90.80;;;;;;6155261;22;92407;-71
2022/02/05 06:02:55;;;;;;;11.10;3.38;;;4.50;90.80;;;;;;6129027;22;91765;-72
2022/02/05 06:05:22;;;;;;;17.08;3.20;;;4.50;90.80;;;;;;6103508;22;95910;-72
2022/02/05 06:07:49;;;;;;;17.40;2.60;;;4.50;91.00;;;;;;6154665;22;103819;-72
2022/02/05 06:10:16;;;;;;;15.32;2.65;;;4.50;91.00;;;;;;6102977;22;94791;-72
2022/02/05 06:12:43;;;;;;;16.88;3.90;;;4.50;91.00;;;;;;6128496;22;93031;-72
2022/02/05 06:15:10;;;;;;;12.48;2.72;;;4.50;91.10;;;;;;6154660;22;93138;-72
2022/02/05 06:17:37;;;;;;;13.82;2.45;;;4.50;91.10;;;;;;6128508;22;93050;-72
2022/02/05 06:20:07;;;;;;;12.43;2.40;;;4.50;90.90;;;;;;6103302;22;92382;-72
2022/02/05 06:22:34;;;;;;;15.73;2.67;;;4.50;90.90;;;;;;6154958;22;92435;-72
2022/02/05 06:25:02;;;;;;;15.73;2.30;;;4.50;90.90;;;;;;6154610;22;93311;-72
2022/02/05 06:27:29;;;;;;;15.82;2.80;;;4.40;90.80;;;;;;6128490;22;95523;-71
2022/02/05 06:29:56;;;;;;;10.32;2.35;;;4.50;90.70;;;;;;6154853;22;92287;-72
2022/02/05 06:32:23;;;;;;;10.15;2.92;;;4.40;90.70;;;;;;6128213;22;92339;-72
2022/02/05 06:34:50;;;;;;;15.73;3.60;;;4.40;90.70;;;;;;6153216;22;95372;-72
2022/02/05 06:37:18;;;;;;;19.67;2.38;;;4.40;90.70;;;;;;6154997;22;95367;-72
2022/02/05 06:39:45;;;;;;;11.65;2.10;;;4.40;90.80;;;;;;6104306;22;92386;-72
2022/02/05 06:42:12;;;;;;;14.23;2.95;;;4.40;90.80;;;;;;6154160;22;101086;-72
2022/02/05 06:44:39;;;;;;;12.07;2.63;;;4.30;90.80;;;;;;6127930;22;93167;-72
2022/02/05 06:47:07;;;;;;;13.63;2.90;;;4.30;90.90;;;;;;6128294;22;92828;-72
2022/02/05 06:49:35;;;;;;;15.90;3.08;;;4.30;90.90;;;;;;6128514;22;92438;-72
2022/02/05 06:52:02;;;;;;;14.98;2.72;;;4.30;90.80;;;;;;6155035;22;91657;-72
2022/02/05 06:54:30;;;;;;;10.18;2.40;;;4.30;90.90;;;;;;6127752;22;95806;-72
2022/02/05 06:56:57;;;;;;;14.70;2.53;;;4.30;91.00;;;;;;6127536;22;95759;-72
2022/02/05 06:59:24;;;;;;;16.92;2.67;;;4.30;90.90;;;;;;6153455;22;95146;-72
2022/02/05 07:01:52;;;;;;;13.60;2.78;;;4.30;91.00;;;;;;6154688;22;92438;-72
2022/02/05 07:04:23;;;;;;;12.13;2.05;;;4.30;91.10;;;;;;6155483;22;92997;-72
2022/02/05 07:06:53;;;;;;;14.77;2.95;;;4.30;91.10;;;;;;6131084;22;93055;-72
2022/02/05 07:09:24;;;;;;;22.35;3.40;;;4.30;91.20;;;;;;6104527;22;92506;-72
2022/02/05 07:11:52;;;;;;;20.45;3.20;;;4.30;91.20;;;;;;6156236;22;92311;-72
2022/02/05 07:14:23;;;;;;;14.85;2.70;;;4.20;91.10;;;;;;6129363;22;93202;-72
2022/02/05 07:17:04;;;;;;;14.40;2.60;;;4.30;91.10;;;;;;6129677;22;94771;-72
2022/02/05 07:22:32;;;;;;;19.58;3.35;;;4.20;91.20;;;;;;6116602;22;92526;-72
2022/02/05 07:30:15;;;;;;;10.75;2.65;;;4.30;91.10;;;;;;6129234;22;92421;-73
2022/02/05 07:32:52;;;;;;;12.05;2.50;;;4.30;91.20;;;;;;6156128;22;92368;-72
2022/02/05 07:35:19;;;;;;;17.08;4.45;;;4.40;91.20;;;;;;6128830;22;95765;-73
2022/02/05 07:37:49;;;;;;;10.82;3.22;;;4.40;91.00;;;;;;6129449;22;93074;-73
2022/02/05 07:40:18;;;;;;;17.42;4.45;;;4.50;90.90;;;;;;6130259;22;92682;-73
2022/02/05 07:42:45;;;;;;;13.45;2.42;;;4.50;91.00;;;;;;6128953;22;104007;-72
2022/02/05 07:45:12;;;;;;;13.95;4.53;;;4.50;90.70;;;;;;6128401;22;94434;-73
2022/02/05 07:47:39;;;;;;;11.02;3.67;;;4.60;90.60;;;;;;6155763;22;93124;-72
2022/02/05 07:50:07;;;;;;;10.10;2.30;;;4.60;90.70;;;;;;6154333;22;94699;-73
2022/02/05 07:52:35;;;;;;;13.55;3.00;;;4.60;90.70;;;;;;6129669;22;92369;-73
2022/02/05 07:55:02;;;;;;;12.23;2.67;;;4.70;90.60;;;;;;6155707;22;93321;-72
2022/02/05 07:57:30;;;;;;;13.82;2.67;;;4.70;90.50;;;;;;6128944;22;95878;-73
2022/02/05 07:59:57;;;;;;;10.73;2.92;;;4.80;90.60;;;;;;6129073;22;92733;-72
2022/02/05 08:02:23;;;;;;;12.73;2.80;;;4.90;90.50;;;;;;6155514;22;92563;-73
2022/02/05 08:04:50;;;;;;;11.90;2.50;;;5.00;90.30;;;;;;6155641;22;93112;-73
2022/02/05 08:07:18;;;;;;;14.80;3.30;;;5.10;90.30;;;;;;6155737;22;93114;-73
2022/02/05 08:12:19;;;;;;;11.05;3.22;;;5.20;90.00;;;;;;6128880;22;92526;-73
2022/02/05 08:14:49;;;;;;;10.18;2.92;;;5.30;89.90;;;;;;6153033;22;109977;-72
2022/02/05 08:17:23;;;;;;;10.07;2.20;;;5.30;89.90;;;;;;6128624;22;98830;-73
2022/02/05 08:19:50;;;;;;;16.48;2.80;;;5.40;89.70;;;;;;6156047;22;92403;-73
2022/02/05 08:22:21;;;;;;;9.35;2.20;;;5.50;89.30;;;;;;6155533;22;92817;-73
2022/02/05 08:24:49;;;;;;;12.57;2.30;;;5.60;88.90;;;;;;6129200;22;93263;-73
2022/02/05 08:27:16;;;;;;;16.30;2.25;;;5.70;88.40;;;;;;6155320;22;92494;-73
2022/02/05 08:29:53;;;;;;;11.65;2.08;;;5.70;88.10;;;;;;6129386;22;92489;-73
2022/02/05 08:32:24;;;;;;;7.03;2.72;;;5.70;88.50;;;;;;6156227;22;91546;-73
2022/02/05 08:34:52;;;;;;;13.00;2.33;;;5.80;88.00;;;;;;6155508;22;93494;-72
2022/02/05 08:37:19;;;;;;;17.05;2.53;;;5.80;87.80;;;;;;6128778;22;93011;-73
2022/02/05 08:39:47;;;;;;;9.73;2.55;;;5.80;87.70;;;;;;6127512;22;94768;-73
2022/02/05 08:42:14;;;;;;;16.77;3.05;;;5.90;88.10;;;;;;6128494;22;92460;-73
2022/02/05 08:44:41;;;;;;;10.75;2.65;;;5.90;88.10;;;;;;6154267;22;108760;-73
2022/02/05 08:47:08;;;;;;;8.77;2.30;;;5.90;88.00;;;;;;6128624;22;95473;-73
2022/02/05 08:49:35;;;;;;;10.38;2.35;;;6.00;87.60;;;;;;6129385;22;92340;-72
2022/02/05 08:52:07;;;;;;;13.57;2.78;;;6.00;87.50;;;;;;6104358;22;92784;-73
2022/02/05 08:54:34;;;;;;;13.75;2.80;;;6.10;87.80;;;;;;6128511;22;96007;-73
2022/02/05 08:57:02;;;;;;;11.73;2.80;;;6.10;87.00;;;;;;6129370;22;92935;-73
2022/02/05 08:59:36;;;;;;;15.35;2.60;;;6.10;87.20;;;;;;6128387;22;92478;-73
2022/02/05 09:02:13;;;;;;;11.93;2.67;;;6.20;87.40;;;;;;6128476;22;92319;-73
2022/02/05 09:04:57;;;;;;;10.82;2.67;;;6.40;86.90;;;;;;6102499;22;98058;-73
2022/02/05 09:07:24;;;;;;;16.40;2.72;;;6.50;86.20;;;;;;6155035;22;95223;-73
2022/02/05 09:12:42;;;;;;;12.18;2.67;;;6.80;85.30;;;;;;6130984;22;92466;-73
2022/02/05 09:15:11;;;;;;;9.98;2.10;;;7.00;84.50;;;;;;6155373;22;93315;-73
2022/02/05 09:17:39;;;;;;;14.82;2.72;;;7.20;84.30;;;;;;6128055;22;95549;-73
2022/02/05 09:20:06;;;;;;;11.52;2.50;;;7.30;84.00;;;;;;6129416;22;92334;-73
2022/02/05 09:22:34;;;;;;;11.15;1.98;;;7.40;82.90;;;;;;6129348;22;91612;-73
2022/02/05 09:25:01;;;;;;;8.32;2.10;;;7.50;82.70;;;;;;6104500;22;93080;-73
2022/02/05 09:27:36;;;;;;;8.48;2.20;;;7.60;82.10;;;;;;6103455;22;95208;-73
2022/02/05 09:30:07;;;;;;;9.95;2.50;;;7.60;82.00;;;;;;6127456;22;94859;-73
2022/02/05 09:32:34;;;;;;;9.90;2.55;;;7.70;82.60;;;;;;6128566;22;92398;-73
2022/02/05 09:35:02;;;;;;;12.27;2.55;;;7.70;81.30;;;;;;6155298;22;93274;-73
2022/02/05 09:37:29;;;;;;;8.73;1.98;;;7.70;80.90;;;;;;6154891;22;93277;-73
2022/02/05 09:39:56;;;;;;;11.30;2.30;;;7.70;81.80;;;;;;6128792;22;92350;-73
2022/02/05 09:42:23;;;;;;;12.02;2.75;;;7.70;81.40;;;;;;6128415;22;97245;-73
2022/02/05 09:44:51;;;;;;;9.27;2.30;;;7.70;81.30;;;;;;6128702;22;92974;-73
2022/02/05 09:47:21;;;;;;;12.93;2.20;;;7.80;81.20;;;;;;6155682;22;93056;-72
2022/02/05 09:49:50;;;;;;;11.93;2.17;;;7.80;80.70;;;;;;6128712;22;92434;-73
2022/02/05 09:52:24;;;;;;;10.38;2.80;;;7.80;80.70;;;;;;6129478;22;92951;-73
2022/02/05 09:54:52;;;;;;;17.45;2.70;;;7.80;80.70;;;;;;6127312;22;95493;-72
2022/02/05 09:57:19;;;;;;;13.07;2.35;;;7.90;80.90;;;;;;6154975;22;95512;-73
2022/02/05 09:59:56;;;;;;;14.25;2.88;;;7.90;80.70;;;;;;6129084;22;92373;-73
2022/02/05 10:02:34;;;;;;;15.80;3.10;;;8.00;81.30;;;;;;6128197;22;92907;-73
2022/02/05 10:05:11;;;;;;;12.77;3.22;;;8.10;80.50;;;;;;6155182;22;93006;-73
2022/02/05 10:07:54;;;;;;;11.80;2.80;;;8.10;80.30;;;;;;6155047;22;93017;-73
2022/02/05 10:10:22;;;;;;;14.57;3.10;;;8.20;80.30;;;;;;6155291;22;92392;-73
2022/02/05 10:13:18;;;;;;;13.43;3.22;;;8.30;80.00;;;;;;6128649;22;91743;-73
2022/02/05 10:15:52;;;;;;;13.95;3.20;;;8.40;79.70;;;;;;6103148;22;101374;-73
2022/02/05 10:18:35;;;;;;;11.35;2.55;;;8.50;80.00;;;;;;6128304;22;95385;-73
2022/02/05 10:21:16;;;;;;;9.98;2.83;;;8.60;79.80;;;;;;6127205;22;94881;-73
2022/02/05 10:23:54;;;;;;;13.68;3.65;;;8.60;79.00;;;;;;6154777;22;92753;-73
2022/02/05 10:26:39;;;;;;;15.52;2.75;;;8.80;79.20;;;;;;6128548;22;94530;-73
2022/02/05 10:29:10;;;;;;;12.98;2.80;;;9.00;78.40;;;;;;6128191;22;94391;-73
2022/02/05 10:32:13;;;;;;;12.88;3.63;;;9.20;77.90;;;;;;6154631;22;92381;-73
2022/02/05 10:35:17;;;;;;;15.57;3.17;;;9.30;76.60;;;;;;6139372;22;93077;-74
2022/02/05 10:37:54;;;;;;;10.10;2.63;;;9.40;76.90;;;;;;6127790;22;95573;-73
2022/02/05 10:43:00;;;;;;;18.77;3.08;;;9.30;76.90;;;;;;6156529;22;92866;-73
2022/02/05 10:43:13;;;;;;;10.95;2.67;;;9.30;76.80;;;;;;6116067;22;92334;-73
2022/02/05 10:45:52;;;;;;;14.77;3.15;;;9.30;77.30;;;;;;6155947;22;92436;-73
2022/02/05 10:48:21;;;;;;;16.63;3.20;;;9.40;76.90;;;;;;6127890;22;98318;-73
2022/02/05 10:50:51;;;;;;;14.75;3.35;;;9.30;76.50;;;;;;6155678;22;95440;-73
2022/02/05 10:53:25;;;;;;;15.18;3.33;;;9.30;76.60;;;;;;6156246;22;92297;-73
2022/02/05 11:07:11;;;;;;;18.85;3.13;;;9.50;76.40;;;;;;6156678;22;91551;-72
2022/02/05 11:09:40;;;;;;;12.15;2.95;;;9.60;76.70;;;;;;6155979;22;92913;-73
2022/02/05 11:20:21;;;;;;;13.25;2.83;;;9.40;77.00;;;;;;6156008;22;93214;-73
2022/02/05 11:23:05;;;;;;;8.05;2.70;;;9.50;76.60;;;;;;6128973;22;92948;-74
2022/02/05 11:25:39;;;;;;;15.98;3.58;;;9.70;77.10;;;;;;6156198;22;92368;-73
2022/02/05 11:28:07;;;;;;;12.85;2.97;;;9.80;76.40;;;;;;6156090;22;92301;-73
2022/02/05 11:30:39;;;;;;;12.68;3.00;;;9.80;76.10;;;;;;6129091;22;93155;-73
2022/02/05 11:33:20;;;;;;;12.73;2.83;;;9.90;75.20;;;;;;6129626;22;95679;-73
2022/02/05 11:38:34;;;;;;;9.00;2.50;;;9.90;74.80;;;;;;6156110;22;92381;-73
2022/02/05 11:41:06;;;;;;;9.15;2.67;;;10.00;74.30;;;;;;6154408;22;95762;-73
2022/02/05 11:43:37;;;;;;;11.93;2.70;;;10.00;74.10;;;;;;6155269;22;95211;-74
2022/02/05 11:46:07;;;;;;;10.27;2.20;;;10.00;74.40;;;;;;6156159;22;92364;-73
2022/02/05 11:48:49;;;;;;;12.15;2.90;;;10.00;74.10;;;;;;6104276;22;92569;-73
2022/02/05 11:51:28;;;;;;;10.23;3.50;;;10.10;74.40;;;;;;6155440;22;94469;-73
2022/02/05 11:53:55;;;;;;;9.15;2.70;;;10.10;73.70;;;;;;6104382;22;95497;-73
2022/02/05 11:56:47;;;;;;;11.10;2.95;;;10.10;73.10;;;;;;6129198;22;92404;-73
2022/02/05 11:59:15;;;;;;;10.10;2.05;;;10.10;73.40;;;;;;6156411;22;91569;-73
2022/02/05 12:01:45;;;;;;;9.18;2.50;;;10.10;72.90;;;;;;6128620;22;106696;-73
2022/02/05 12:04:22;;;;;;;11.73;2.28;;;10.20;72.90;;;;;;6155631;22;92504;-73
2022/02/05 12:06:49;;;;;;;12.77;2.55;;;10.20;72.20;;;;;;6127625;22;95188;-73
2022/02/05 12:09:39;;;;;;;11.18;2.65;;;10.10;72.50;;;;;;6128986;22;92516;-74
2022/02/05 12:12:22;;;;;;;8.48;2.70;;;10.20;72.00;;;;;;6155604;22;93323;-73
2022/02/05 12:15:08;;;;;;;8.23;2.78;;;10.20;72.30;;;;;;6155410;22;93213;-73
2022/02/05 12:18:05;;;;;;;12.85;2.97;;;10.10;71.50;;;;;;6155872;22;92434;-73
2022/02/05 12:26:17;;;;;;;8.07;1.75;;;10.20;71.70;;;;;;6156145;22;93375;-73
2022/02/05 12:28:46;;;;;;;8.90;2.72;;;10.20;71.50;;;;;;6155219;22;98930;-73
2022/02/05 12:31:21;;;;;;;11.20;3.17;;;10.20;71.60;;;;;;6129268;22;92374;-73
2022/02/05 12:33:52;;;;;;;8.55;2.60;;;10.20;71.40;;;;;;6126918;22;98065;-73
2022/02/05 12:36:29;;;;;;;8.65;2.58;;;10.10;70.60;;;;;;6155188;22;96667;-73
2022/02/05 12:38:59;;;;;;;6.40;2.53;;;10.20;70.80;;;;;;6155639;22;92390;-72
2022/02/05 12:41:29;;;;;;;11.27;2.67;;;10.20;71.00;;;;;;6155782;22;92351;-73
2022/02/05 12:43:59;;;;;;;12.40;2.45;;;10.30;70.60;;;;;;6154675;22;92719;-73
2022/02/05 12:46:38;;;;;;;6.35;2.38;;;10.50;70.60;;;;;;6155708;22;92992;-73
2022/02/05 12:49:14;;;;;;;7.53;2.58;;;10.60;69.80;;;;;;6155405;22;92423;-73
2022/02/05 12:51:42;;;;;;;10.43;2.80;;;10.60;69.60;;;;;;6156162;22;91634;-73
2022/02/05 12:54:14;;;;;;;8.77;2.85;;;10.60;69.10;;;;;;6155251;22;93128;-75
2022/02/05 12:56:43;;;;;;;9.13;2.55;;;10.70;69.00;;;;;;6128715;22;95405;-72
2022/02/05 12:59:24;;;;;;;9.02;2.67;;;10.90;68.90;;;;;;6128197;22;94857;-72
2022/02/05 13:01:52;;;;;;;9.70;2.47;;;11.00;68.20;;;;;;6128756;22;92551;-72
2022/02/05 13:04:21;;;;;;;11.57;2.67;;;11.00;67.90;;;;;;6155252;22;93211;-73
2022/02/05 13:07:12;;;;;;;9.65;2.80;;;11.00;67.40;;;;;;6155054;22;92896;-73
2022/02/05 13:10:06;;;;;;;12.05;2.45;;;11.00;66.50;;;;;;6155538;22;92329;-73
2022/02/05 13:12:32;;;;;;;10.50;2.33;;;10.90;67.10;;;;;;6155016;22;92388;-73
2022/02/05 13:15:07;;;;;;;8.55;2.58;;;10.90;67.30;;;;;;6154939;22;93240;-73
2022/02/05 13:28:36;;;;;;;8.93;2.15;;;10.80;67.10;;;;;;6155118;22;96625;-73
2022/02/05 13:40:13;;;;;;;9.93;2.78;;;10.70;66.40;;;;;;6154760;22;92956;-78
2022/02/05 13:42:24;;;;;;;7.93;2.40;;;10.70;66.60;;;;;;6144206;22;92704;-71
2022/02/05 13:47:33;;;;;;;11.73;2.75;;;10.60;67.50;;;;;;6155277;22;93165;-71
2022/02/05 13:50:22;;;;;;;12.05;2.70;;;10.60;67.80;;;;;;6154733;22;93553;-71
2022/02/05 13:52:51;;;;;;;8.70;2.17;;;10.70;67.40;;;;;;6153892;22;94674;-72
2022/02/05 13:55:20;;;;;;;10.85;2.50;;;10.60;67.80;;;;;;6103588;22;92476;-72
2022/02/05 13:58:07;;;;;;;7.53;2.28;;;10.60;67.50;;;;;;6154940;22;93227;-72
2022/02/05 14:00:40;;;;;;;9.88;2.08;;;10.60;66.90;;;;;;6128383;22;95532;-72
2022/02/05 14:03:09;;;;;;;9.80;2.55;;;10.50;66.50;;;;;;6154893;22;92372;-72
2022/02/05 14:06:05;;;;;;;9.77;2.50;;;10.40;67.30;;;;;;6127977;22;101880;-71
2022/02/05 14:08:52;;;;;;;9.50;2.17;;;10.40;66.80;;;;;;6154948;22;93193;-72
2022/02/05 14:11:33;;;;;;;9.30;2.20;;;10.20;66.90;;;;;;6155054;22;93010;-79
2022/02/05 14:14:12;;;;;;;6.72;2.28;;;10.20;66.80;;;;;;6127278;22;92372;-72
2022/02/05 14:16:40;;;;;;;9.95;2.00;;;10.10;67.60;;;;;;6154963;22;92517;-78
2022/02/05 14:19:08;;;;;;;7.85;2.50;;;10.00;67.70;;;;;;6152972;22;95649;-72
2022/02/05 14:21:39;;;;;;;10.05;2.70;;;10.10;67.60;;;;;;6102990;22;98008;-78
2022/02/05 14:24:15;;;;;;;7.38;2.25;;;10.10;66.80;;;;;;6128117;22;92444;-72
2022/02/05 14:32:27;;;;;;;7.03;1.50;;;10.30;67.70;;;;;;6127996;22;93890;-73
2022/02/05 14:35:07;;;;;;;9.68;2.28;;;10.30;67.30;;;;;;6130857;22;92457;-74
2022/02/05 14:42:47;;;;;;;5.82;1.75;;;10.40;67.30;;;;;;6128014;22;94081;-79
2022/02/05 14:45:14;;;;;;;9.32;1.67;;;10.30;67.50;;;;;;6126473;22;94961;-79
2022/02/05 14:47:41;;;;;;;9.32;2.03;;;10.40;67.60;;;;;;6154812;22;92417;-79
2022/02/05 14:50:08;;;;;;;9.63;2.42;;;10.40;67.50;;;;;;6127922;22;93130;-79
2022/02/05 14:52:35;;;;;;;7.65;1.90;;;10.30;67.80;;;;;;6128277;22;92994;-79
2022/02/05 14:55:03;;;;;;;8.35;2.00;;;10.30;68.00;;;;;;6127742;22;92462;-79
2022/02/05 14:57:29;;;;;;;8.13;1.88;;;10.30;67.40;;;;;;6128102;22;92423;-79
2022/02/05 14:59:56;;;;;;;7.78;1.92;;;10.30;67.70;;;;;;6154480;22;98651;-79
2022/02/05 15:02:24;;;;;;;7.70;1.90;;;10.30;68.00;;;;;;6128148;22;95632;-79
2022/02/05 15:04:51;;;;;;;10.30;2.15;;;10.30;67.80;;;;;;6154466;22;92449;-79
2022/02/05 15:07:19;;;;;;;9.30;1.95;;;10.30;67.90;;;;;;6128004;22;92527;-79
2022/02/05 15:09:46;;;;;;;5.05;2.13;;;10.20;68.10;;;;;;6152771;22;95605;-79
2022/02/05 15:12:13;;;;;;;5.82;1.90;;;10.10;68.50;;;;;;6127629;22;95359;-79
2022/02/05 15:14:40;;;;;;;9.70;2.30;;;10.10;68.20;;;;;;6154605;22;92300;-72
2022/02/05 15:17:08;;;;;;;10.73;2.30;;;10.00;69.10;;;;;;6127928;22;92394;-79
2022/02/05 15:19:35;;;;;;;4.78;1.77;;;10.00;69.10;;;;;;6127373;22;103970;-79
2022/02/05 15:22:02;;;;;;;7.50;2.13;;;10.00;69.10;;;;;;6127475;22;96250;-79
2022/02/05 15:24:29;;;;;;;5.82;1.83;;;10.00;69.20;;;;;;6127929;22;92435;-77
2022/02/05 15:26:56;;;;;;;8.27;2.10;;;10.00;69.30;;;;;;6130208;22;91741;-77
2022/02/05 15:29:23;;;;;;;9.18;2.42;;;10.00;69.10;;;;;;6155412;22;93498;-77
2022/02/05 15:31:50;;;;;;;7.55;2.03;;;9.90;69.00;;;;;;6104481;22;94058;-77
2022/02/05 15:34:17;;;;;;;8.05;2.30;;;9.80;69.50;;;;;;6154253;22;94811;-77
2022/02/05 15:36:50;;;;;;;5.95;1.67;;;9.80;69.80;;;;;;6129615;22;92739;-77
2022/02/05 15:39:33;;;;;;;9.80;2.22;;;9.70;69.90;;;;;;6128993;22;94743;-77
2022/02/05 15:44:47;;;;;;;7.60;1.98;;;9.70;70.80;;;;;;6155102;22;92478;-77
2022/02/05 15:47:15;;;;;;;9.75;2.00;;;9.60;70.90;;;;;;6129299;22;92403;-77
2022/02/05 15:49:41;;;;;;;6.70;1.65;;;9.60;70.30;;;;;;6128956;22;94120;-77
2022/02/05 15:52:10;;;;;;;6.05;2.50;;;9.50;70.10;;;;;;6129890;22;92695;-77
2022/02/05 15:54:37;;;;;;;11.07;1.83;;;9.50;70.70;;;;;;6103801;22;102994;-77
2022/02/05 16:02:12;;;;;;;5.63;1.63;;;9.30;71.40;;;;;;6155162;22;95291;-78
2022/02/05 16:04:39;;;;;;;10.43;2.13;;;9.30;71.50;;;;;;6129526;22;92489;-78
2022/02/05 16:07:06;;;;;;;9.55;2.47;;;9.20;72.20;;;;;;6155821;22;92426;-78
2022/02/05 16:09:34;;;;;;;6.78;2.05;;;9.10;72.70;;;;;;6129121;22;92961;-78
2022/02/05 16:12:07;;;;;;;7.47;2.00;;;9.10;72.30;;;;;;6155694;22;92910;-78
2022/02/05 16:14:34;;;;;;;8.95;2.30;;;9.10;72.80;;;;;;6155580;22;92365;-78
2022/02/05 16:17:04;;;;;;;11.85;2.10;;;9.10;72.50;;;;;;6129911;22;92101;-78
2022/02/05 16:19:31;;;;;;;7.10;1.52;;;9.10;72.30;;;;;;6128688;22;93159;-78
2022/02/05 16:21:59;;;;;;;7.85;2.00;;;9.00;72.30;;;;;;6128865;22;95393;-78
2022/02/05 16:24:26;;;;;;;9.60;2.45;;;9.00;72.70;;;;;;6126577;22;102942;-78
2022/02/05 16:26:53;;;;;;;7.53;2.17;;;8.90;73.40;;;;;;6155714;22;92441;-78
2022/02/05 16:29:26;;;;;;;9.75;2.72;;;8.90;73.60;;;;;;6155257;22;93111;-78
2022/02/05 16:31:55;;;;;;;7.80;2.07;;;9.00;73.70;;;;;;6155564;22;93115;-78
2022/02/05 16:34:24;;;;;;;7.80;2.17;;;8.90;73.40;;;;;;6104122;22;92770;-78
2022/02/05 16:36:51;;;;;;;7.03;2.28;;;8.90;74.00;;;;;;6128984;22;92808;-78
2022/02/05 16:39:23;;;;;;;7.35;2.30;;;8.90;73.90;;;;;;6155514;22;93088;-78
2022/02/05 16:41:50;;;;;;;6.75;2.83;;;8.90;74.50;;;;;;6156034;22;93040;-78
2022/02/05 16:44:17;;;;;;;12.13;2.50;;;8.90;74.30;;;;;;6103870;22;92492;-78
2022/02/05 16:46:48;;;;;;;8.07;2.17;;;8.90;74.40;;;;;;6129043;22;92442;-78
2022/02/05 16:49:15;;;;;;;9.27;2.17;;;8.90;74.80;;;;;;6128004;22;94945;-78
2022/02/05 16:51:49;;;;;;;7.53;2.22;;;8.80;75.30;;;;;;6128694;22;100723;-78
2022/02/05 16:54:16;;;;;;;10.88;2.20;;;8.90;76.00;;;;;;6129414;22;92492;-78